Time;durP1;ratioP1;P1;durP2;ratioP2;P2;SDS_P1;SDS_P2;PMS_P1;PMS_P2;Temp;Humidity;BMP_temperature;BMP_pressure;BME280_temperature;BME280_humidity;BME280_pressure;Samples;Min_cycle;Max_cycle;Signal;HPM_P1;HPM_P2
2022/12/08 00:01:23;;;;;;;3.03;2.40;;;20.30;51.90;;;;;;5042516;28;44009;-60
2022/12/08 00:03:51;;;;;;;3.43;2.27;;;20.20;51.90;;;;;;5032045;28;45048;-61
2022/12/08 00:09:22;;;;;;;3.05;2.38;;;20.20;51.90;;;;;;5041860;28;43567;-61
2022/12/08 00:11:52;;;;;;;2.97;2.40;;;20.20;51.90;;;;;;5031927;28;43477;-60
2022/12/08 00:14:22;;;;;;;2.35;2.15;;;20.20;51.90;;;;;;5041298;28;44812;-61
2022/12/08 00:16:49;;;;;;;3.80;2.72;;;20.20;51.90;;;;;;5042402;28;43773;-61
2022/12/08 00:19:16;;;;;;;3.67;2.80;;;20.20;51.90;;;;;;5041269;28;43399;-61
2022/12/08 00:21:43;;;;;;;2.90;2.60;;;20.20;51.90;;;;;;5042126;28;43489;-61
2022/12/08 00:24:11;;;;;;;4.18;2.58;;;20.20;51.90;;;;;;5041548;28;44946;-61
2022/12/08 00:26:38;;;;;;;3.20;2.40;;;20.20;51.90;;;;;;5041099;28;43662;-61
2022/12/08 00:29:05;;;;;;;3.13;2.40;;;20.10;51.90;;;;;;5037427;28;43385;-61
2022/12/08 00:31:33;;;;;;;3.00;2.70;;;20.10;51.80;;;;;;5022783;28;43513;-61
2022/12/08 00:34:01;;;;;;;2.83;2.53;;;20.10;51.80;;;;;;5040796;28;44031;-60
2022/12/08 00:36:29;;;;;;;3.15;2.60;;;20.10;51.80;;;;;;5041445;28;43403;-61
2022/12/08 00:38:57;;;;;;;2.80;2.55;;;20.10;51.90;;;;;;5042123;28;44018;-61
2022/12/08 00:44:15;;;;;;;2.80;2.40;;;20.10;51.80;;;;;;5022170;28;44653;-61
2022/12/08 00:46:42;;;;;;;3.42;2.80;;;20.00;51.90;;;;;;5032795;28;43779;-61
2022/12/08 00:49:11;;;;;;;4.07;3.05;;;20.00;51.90;;;;;;5040529;28;43461;-61
2022/12/08 00:51:39;;;;;;;3.35;2.80;;;20.00;51.90;;;;;;5041414;28;43435;-61
2022/12/08 00:54:06;;;;;;;3.33;2.70;;;20.00;51.90;;;;;;5041464;28;45238;-61
2022/12/08 00:56:34;;;;;;;3.45;2.70;;;20.00;51.90;;;;;;5040919;28;43834;-61
2022/12/08 00:59:04;;;;;;;3.00;2.65;;;20.00;51.90;;;;;;5041854;28;43517;-61
2022/12/08 01:01:32;;;;;;;3.15;2.42;;;20.00;51.90;;;;;;5040630;28;43371;-61
2022/12/08 01:04:09;;;;;;;3.00;2.50;;;19.90;51.90;;;;;;5041219;28;44685;-61
2022/12/08 01:06:37;;;;;;;2.45;2.20;;;19.90;51.90;;;;;;5040947;28;44128;-61
2022/12/08 01:09:06;;;;;;;2.80;2.35;;;19.90;52.00;;;;;;5040938;28;43498;-61
2022/12/08 01:11:34;;;;;;;2.72;2.40;;;19.90;52.00;;;;;;5036479;28;43494;-61
2022/12/08 01:14:02;;;;;;;3.83;2.58;;;19.90;52.00;;;;;;5030784;28;45013;-61
2022/12/08 01:16:33;;;;;;;2.88;2.28;;;19.90;52.10;;;;;;5040532;28;43386;-61
2022/12/08 01:19:01;;;;;;;2.60;2.10;;;19.80;52.10;;;;;;5043290;28;43391;-61
2022/12/08 01:21:28;;;;;;;2.30;2.10;;;19.80;52.20;;;;;;5030735;28;43427;-61
2022/12/08 01:23:59;;;;;;;2.65;2.33;;;19.80;52.10;;;;;;5044181;28;45341;-61
2022/12/08 01:26:26;;;;;;;2.20;2.00;;;19.80;52.10;;;;;;5044540;28;45047;-61
2022/12/08 01:28:54;;;;;;;3.10;2.17;;;19.80;52.20;;;;;;5044522;28;43413;-61
2022/12/08 01:31:21;;;;;;;2.45;2.10;;;19.80;52.20;;;;;;5044094;28;43495;-61
2022/12/08 01:33:50;;;;;;;2.25;1.90;;;19.80;52.20;;;;;;5044429;28;44040;-61
2022/12/08 01:36:25;;;;;;;2.70;2.03;;;19.70;52.20;;;;;;5044613;28;43939;-61
2022/12/08 01:38:55;;;;;;;2.38;1.80;;;19.80;52.30;;;;;;5027312;28;43607;-61
2022/12/08 01:41:26;;;;;;;3.13;1.85;;;19.70;52.20;;;;;;5037617;28;43511;-61
2022/12/08 01:44:00;;;;;;;2.53;1.75;;;19.70;52.20;;;;;;5036057;28;44946;-61
2022/12/08 01:46:31;;;;;;;2.25;1.73;;;19.70;52.20;;;;;;5043990;28;43937;-61
2022/12/08 01:49:31;;;;;;;2.78;1.98;;;19.70;52.20;;;;;;5044773;28;43430;-61
2022/12/08 01:52:01;;;;;;;2.10;1.90;;;19.70;52.20;;;;;;5044090;28;43423;-61
2022/12/08 01:54:33;;;;;;;3.78;2.40;;;19.70;52.30;;;;;;5044100;28;45666;-61
2022/12/08 01:57:14;;;;;;;2.00;1.80;;;19.70;52.20;;;;;;5044630;28;43868;-61
2022/12/08 01:59:45;;;;;;;;;;;19.70;52.20;;;;;;5042553;28;43512;-61
2022/12/08 02:02:13;;;;;;;2.22;2.00;;;19.60;52.20;;;;;;5040581;28;43511;-61
2022/12/08 02:04:40;;;;;;;2.30;2.10;;;19.60;52.30;;;;;;5041732;28;44805;-61
2022/12/08 02:07:11;;;;;;;2.53;2.10;;;19.60;52.30;;;;;;5043946;28;43684;-61
2022/12/08 02:09:39;;;;;;;2.42;2.22;;;19.60;52.30;;;;;;5044269;28;43363;-61
2022/12/08 02:12:07;;;;;;;2.75;2.40;;;19.60;52.30;;;;;;5031855;28;43487;-61
2022/12/08 02:14:35;;;;;;;3.10;2.20;;;19.60;52.30;;;;;;5043707;28;43870;-61
2022/12/08 02:17:39;;;;;;;2.60;2.30;;;19.60;52.20;;;;;;5044409;28;43805;-61
2022/12/08 02:20:18;;;;;;;3.20;2.28;;;19.60;52.20;;;;;;5043154;28;43416;-61
2022/12/08 02:22:48;;;;;;;3.28;2.40;;;19.60;52.30;;;;;;5035875;28;43980;-61
2022/12/08 02:25:21;;;;;;;2.17;2.00;;;19.50;52.30;;;;;;5036699;28;44785;-61
2022/12/08 02:28:20;;;;;;;2.33;1.95;;;19.50;52.20;;;;;;5042743;28;43508;-61
2022/12/08 02:31:06;;;;;;;2.33;2.13;;;19.50;52.30;;;;;;5043737;28;43392;-61
2022/12/08 02:33:52;;;;;;;2.10;1.85;;;19.50;52.30;;;;;;5043230;28;43468;-61
2022/12/08 02:36:27;;;;;;;2.83;2.30;;;19.50;52.30;;;;;;5037481;28;45188;-61
2022/12/08 02:43:07;;;;;;;2.80;2.22;;;19.50;52.30;;;;;;5031111;28;43544;-61
2022/12/08 02:45:44;;;;;;;2.28;2.08;;;19.40;52.30;;;;;;5042214;28;43447;-61
2022/12/08 02:48:13;;;;;;;1.75;1.65;;;19.40;52.30;;;;;;5042579;28;44992;-61
2022/12/08 02:50:41;;;;;;;1.85;1.75;;;19.40;52.30;;;;;;5043315;28;43435;-61
2022/12/08 02:53:09;;;;;;;1.95;1.85;;;19.40;52.40;;;;;;5043249;28;43672;-61
2022/12/08 02:56:02;;;;;;;2.25;1.80;;;19.40;52.40;;;;;;5042942;28;43604;-61
2022/12/08 02:58:36;;;;;;;2.28;1.80;;;19.40;52.40;;;;;;5042682;28;43971;-61
2022/12/08 03:01:31;;;;;;;1.77;1.67;;;19.30;52.40;;;;;;5043226;28;43823;-61
2022/12/08 03:04:08;;;;;;;1.83;1.65;;;19.30;52.40;;;;;;5038309;28;43426;-61
2022/12/08 03:07:07;;;;;;;1.90;1.52;;;19.30;52.40;;;;;;5043079;28;43536;-61
2022/12/08 03:09:52;;;;;;;1.60;1.50;;;19.30;52.50;;;;;;5042191;28;44768;-61
2022/12/08 03:12:35;;;;;;;2.30;1.80;;;19.30;52.50;;;;;;5037903;28;43397;-61
2022/12/08 03:15:08;;;;;;;1.50;1.40;;;19.20;52.50;;;;;;5043088;28;43419;-61
2022/12/08 03:17:37;;;;;;;2.13;1.58;;;19.30;52.50;;;;;;5035613;28;43450;-61
2022/12/08 03:20:11;;;;;;;2.08;1.70;;;19.30;52.50;;;;;;5033906;28;44718;-61
2022/12/08 03:22:40;;;;;;;1.83;1.63;;;19.20;52.50;;;;;;5032084;28;43661;-61
2022/12/08 03:25:12;;;;;;;2.92;1.70;;;19.30;52.50;;;;;;5042454;28;43383;-60
2022/12/08 03:27:39;;;;;;;1.75;1.65;;;19.20;52.50;;;;;;5042900;28;43416;-60
2022/12/08 03:30:08;;;;;;;1.48;1.38;;;19.20;52.50;;;;;;5037497;28;44838;-61
2022/12/08 03:32:51;;;;;;;1.70;1.60;;;19.20;52.50;;;;;;5042235;28;43670;-61
2022/12/08 03:35:23;;;;;;;1.92;1.40;;;19.20;52.50;;;;;;5023578;28;43459;-61
2022/12/08 03:37:51;;;;;;;1.50;1.40;;;19.20;52.60;;;;;;5033412;28;43465;-61
2022/12/08 03:40:19;;;;;;;1.55;1.45;;;19.10;52.50;;;;;;5041181;28;43643;-61
2022/12/08 03:42:47;;;;;;;1.95;1.85;;;19.10;52.60;;;;;;5042134;28;43736;-61
2022/12/08 03:45:15;;;;;;;1.65;1.55;;;19.10;52.60;;;;;;5041985;28;43414;-61
2022/12/08 03:47:42;;;;;;;1.70;1.60;;;19.10;52.60;;;;;;5042276;28;43572;-61
2022/12/08 03:50:11;;;;;;;2.05;1.88;;;19.10;52.60;;;;;;5041710;28;44351;-61
2022/12/08 03:52:38;;;;;;;2.00;1.80;;;19.10;52.60;;;;;;5026387;28;43694;-61
2022/12/08 03:55:06;;;;;;;1.60;1.50;;;19.10;52.60;;;;;;5042476;28;43396;-61
2022/12/08 03:57:34;;;;;;;1.90;1.75;;;19.10;52.60;;;;;;5042066;28;43498;-61
2022/12/08 04:00:07;;;;;;;2.03;1.77;;;19.10;52.60;;;;;;5042271;28;43790;-61
2022/12/08 04:02:35;;;;;;;1.77;1.67;;;19.10;52.70;;;;;;5023515;28;43914;-61
2022/12/08 04:05:02;;;;;;;2.17;1.98;;;19.10;52.60;;;;;;5033905;28;43548;-61
2022/12/08 04:07:30;;;;;;;1.88;1.77;;;19.10;52.60;;;;;;5034793;28;44571;-61
2022/12/08 04:09:57;;;;;;;1.70;1.60;;;19.00;52.60;;;;;;5042378;28;43735;-61
2022/12/08 04:12:25;;;;;;;2.08;1.80;;;19.00;52.60;;;;;;5032068;28;43823;-61
2022/12/08 04:14:52;;;;;;;2.42;2.20;;;19.00;52.60;;;;;;5030786;28;43453;-61
2022/12/08 04:17:19;;;;;;;2.45;1.92;;;19.00;52.60;;;;;;5042512;28;43454;-61
2022/12/08 04:19:47;;;;;;;2.70;2.25;;;19.00;52.60;;;;;;5023958;28;44663;-61
2022/12/08 04:22:14;;;;;;;1.98;1.88;;;19.00;52.60;;;;;;5022911;28;44049;-61
2022/12/08 04:24:42;;;;;;;1.83;1.70;;;19.00;52.60;;;;;;5030302;28;43533;-61
2022/12/08 04:27:09;;;;;;;2.00;1.83;;;18.90;52.50;;;;;;5041694;28;43905;-61
2022/12/08 04:29:37;;;;;;;2.00;1.77;;;18.90;52.50;;;;;;5041445;28;43793;-61
2022/12/08 04:32:04;;;;;;;1.98;1.70;;;18.90;52.50;;;;;;5022451;28;43805;-61
2022/12/08 04:34:32;;;;;;;1.77;1.65;;;18.90;52.50;;;;;;5021674;28;43419;-61
2022/12/08 04:37:00;;;;;;;1.58;1.48;;;18.90;52.60;;;;;;5034821;28;43479;-61
2022/12/08 04:39:27;;;;;;;2.03;1.83;;;18.90;52.60;;;;;;5040948;28;44664;-61
2022/12/08 04:41:55;;;;;;;1.80;1.70;;;18.90;52.60;;;;;;5022640;28;43649;-61
2022/12/08 04:44:22;;;;;;;1.70;1.40;;;18.80;52.50;;;;;;5030301;28;43502;-61
2022/12/08 04:46:50;;;;;;;1.70;1.60;;;18.80;52.50;;;;;;5040764;28;43613;-61
2022/12/08 04:49:17;;;;;;;1.85;1.65;;;18.80;52.60;;;;;;5041257;28;44066;-61
2022/12/08 04:51:45;;;;;;;1.65;1.48;;;18.80;52.60;;;;;;5022183;28;43695;-61
2022/12/08 04:54:12;;;;;;;1.50;1.40;;;18.80;52.60;;;;;;5029105;28;43440;-61
2022/12/08 04:56:39;;;;;;;1.75;1.40;;;18.80;52.60;;;;;;5042059;28;43431;-61
2022/12/08 04:59:08;;;;;;;1.48;1.38;;;18.80;52.60;;;;;;5041079;28;44756;-61
2022/12/08 05:01:35;;;;;;;1.50;1.40;;;18.80;52.60;;;;;;5024989;28;43448;-61
2022/12/08 05:04:03;;;;;;;2.10;1.60;;;18.70;52.60;;;;;;5036508;28;43454;-61
2022/12/08 05:06:30;;;;;;;1.20;1.10;;;18.70;52.60;;;;;;5029543;28;43594;-61
2022/12/08 05:08:58;;;;;;;1.38;1.27;;;18.70;52.70;;;;;;5037234;28;44692;-61
2022/12/08 05:11:25;;;;;;;1.33;1.23;;;18.70;52.70;;;;;;5024824;28;43667;-61
2022/12/08 05:13:53;;;;;;;1.48;1.38;;;18.70;52.70;;;;;;5029950;28;43454;-61
2022/12/08 05:16:20;;;;;;;1.40;1.30;;;18.70;52.80;;;;;;5040798;28;43423;-61
2022/12/08 05:18:48;;;;;;;1.55;1.40;;;18.70;52.80;;;;;;5040858;28;44710;-61
2022/12/08 05:21:15;;;;;;;1.42;1.27;;;18.70;52.80;;;;;;5022149;28;43520;-61
2022/12/08 05:23:43;;;;;;;1.40;1.23;;;18.60;52.70;;;;;;5021377;28;43391;-61
2022/12/08 05:26:10;;;;;;;1.30;1.20;;;18.70;52.80;;;;;;5033955;28;43431;-61
2022/12/08 05:28:37;;;;;;;1.33;1.23;;;18.70;52.70;;;;;;5040232;28;43823;-61
2022/12/08 05:31:10;;;;;;;1.15;1.05;;;18.60;52.70;;;;;;5021932;28;43998;-61
2022/12/08 05:33:38;;;;;;;1.58;1.15;;;18.60;52.70;;;;;;5030433;28;43467;-61
2022/12/08 05:36:07;;;;;;;1.10;1.00;;;18.60;52.80;;;;;;5040643;28;43433;-61
2022/12/08 05:38:35;;;;;;;0.93;0.93;;;18.60;52.80;;;;;;5040604;28;44684;-61
2022/12/08 05:41:03;;;;;;;1.20;1.10;;;18.60;52.70;;;;;;5041513;28;43433;-61
2022/12/08 05:43:30;;;;;;;1.45;1.05;;;18.60;52.70;;;;;;5040461;28;43486;-60
2022/12/08 05:45:57;;;;;;;2.08;1.20;;;18.60;52.70;;;;;;5041531;28;43562;-61
2022/12/08 05:48:26;;;;;;;1.10;1.00;;;18.60;52.70;;;;;;5025810;28;44969;-61
2022/12/08 05:50:54;;;;;;;0.80;0.80;;;18.60;52.80;;;;;;5025918;28;43992;-61
2022/12/08 05:53:21;;;;;;;0.90;0.90;;;18.50;52.70;;;;;;5041178;28;43423;-61
2022/12/08 05:55:49;;;;;;;1.08;0.95;;;18.50;52.70;;;;;;5041318;28;43540;-61
2022/12/08 05:58:18;;;;;;;1.65;1.02;;;18.50;52.80;;;;;;5039899;28;43959;-61
2022/12/08 06:00:46;;;;;;;1.10;1.00;;;18.50;52.80;;;;;;5040289;28;43898;-61
2022/12/08 06:03:16;;;;;;;0.70;0.70;;;18.50;52.80;;;;;;5037692;28;43563;-60
2022/12/08 06:05:45;;;;;;;1.27;1.10;;;18.50;52.90;;;;;;5042929;28;43505;-61
2022/12/08 06:08:13;;;;;;;0.98;0.98;;;18.50;52.80;;;;;;5027783;28;44996;-61
2022/12/08 06:10:42;;;;;;;1.30;1.20;;;18.50;52.80;;;;;;5039101;28;44442;-61
2022/12/08 06:13:10;;;;;;;1.83;1.50;;;18.50;52.80;;;;;;5032931;28;43504;-60
2022/12/08 06:15:38;;;;;;;1.60;1.50;;;18.50;52.80;;;;;;5039254;28;43463;-61
2022/12/08 06:18:08;;;;;;;1.77;1.42;;;18.50;52.80;;;;;;5027131;28;43886;-61
2022/12/08 06:20:36;;;;;;;1.67;1.58;;;18.50;52.80;;;;;;5035449;28;43442;-61
2022/12/08 06:23:03;;;;;;;2.00;1.67;;;18.50;52.70;;;;;;5035403;28;43396;-61
2022/12/08 06:25:30;;;;;;;1.63;1.50;;;18.50;52.80;;;;;;5028257;28;43556;-61
2022/12/08 06:27:58;;;;;;;2.15;1.92;;;18.50;52.70;;;;;;5040609;28;44748;-61
2022/12/08 06:30:27;;;;;;;1.98;1.77;;;18.50;52.60;;;;;;5030782;28;44186;-61
2022/12/08 06:32:54;;;;;;;1.60;1.50;;;18.50;52.50;;;;;;5041326;28;43546;-61
2022/12/08 06:35:22;;;;;;;2.10;1.60;;;18.50;52.40;;;;;;5028974;28;43500;-61
2022/12/08 06:37:50;;;;;;;1.90;1.60;;;18.50;52.40;;;;;;5029868;28;45141;-60
2022/12/08 06:40:18;;;;;;;2.13;1.40;;;18.50;52.30;;;;;;5038871;28;43687;-61
2022/12/08 06:42:46;;;;;;;1.90;1.70;;;18.50;52.50;;;;;;5040123;28;43502;-61
2022/12/08 06:45:16;;;;;;;2.75;1.58;;;18.50;52.50;;;;;;5027541;28;43494;-61
2022/12/08 06:47:43;;;;;;;1.70;1.60;;;18.40;52.60;;;;;;5031153;28;43811;-60
2022/12/08 06:50:12;;;;;;;2.63;1.70;;;18.40;52.60;;;;;;5033917;28;43973;-60
2022/12/08 06:52:41;;;;;;;1.80;1.70;;;18.40;52.60;;;;;;5040069;28;43415;-60
2022/12/08 06:55:24;;;;;;;1.90;1.63;;;18.40;52.70;;;;;;5039526;28;43555;-60
2022/12/08 06:58:12;;;;;;;1.70;1.60;;;18.40;52.70;;;;;;5030618;28;44715;-61
2022/12/08 07:00:41;;;;;;;1.90;1.80;;;18.40;52.70;;;;;;5035677;28;44142;-61
2022/12/08 07:03:10;;;;;;;2.22;1.70;;;18.30;52.70;;;;;;5031710;28;43415;-61
2022/12/08 07:05:38;;;;;;;2.20;2.00;;;18.40;52.80;;;;;;5036558;28;43459;-61
2022/12/08 07:08:07;;;;;;;2.40;2.20;;;18.30;52.80;;;;;;5033229;28;43592;-61
2022/12/08 07:10:35;;;;;;;3.55;2.75;;;18.30;52.80;;;;;;5036323;28;43382;-59
2022/12/08 07:13:03;;;;;;;2.78;2.42;;;18.30;53.40;;;;;;5041143;28;43496;-61
2022/12/08 07:15:30;;;;;;;4.47;2.70;;;18.40;52.90;;;;;;5028347;28;43880;-61
2022/12/08 07:17:58;;;;;;;3.20;2.90;;;18.40;52.80;;;;;;5023623;28;44759;-61
2022/12/08 07:20:27;;;;;;;3.65;2.70;;;18.40;52.70;;;;;;5036811;28;43471;-61
2022/12/08 07:22:54;;;;;;;3.75;2.80;;;18.30;52.60;;;;;;5026611;28;43430;-61
2022/12/08 07:25:22;;;;;;;2.90;2.55;;;18.40;52.60;;;;;;5036417;28;43424;-61
2022/12/08 07:27:51;;;;;;;3.80;2.65;;;18.40;52.60;;;;;;5032995;28;44973;-61
2022/12/08 07:30:19;;;;;;;3.08;2.40;;;18.40;52.50;;;;;;5026061;28;44411;-61
2022/12/08 07:32:46;;;;;;;3.40;2.53;;;18.40;52.50;;;;;;5039247;28;43460;-61
2022/12/08 07:35:14;;;;;;;3.05;2.40;;;18.40;52.50;;;;;;5028585;28;43495;-61
2022/12/08 07:37:41;;;;;;;3.10;2.58;;;18.40;52.50;;;;;;5035026;28;44797;-61
2022/12/08 07:40:09;;;;;;;3.33;2.70;;;18.40;52.50;;;;;;5039512;28;43669;-61
2022/12/08 07:42:37;;;;;;;3.35;2.60;;;18.40;52.50;;;;;;5038718;28;43380;-61
2022/12/08 07:45:04;;;;;;;2.55;2.25;;;18.40;52.50;;;;;;5029320;28;43502;-61
2022/12/08 07:47:32;;;;;;;3.90;2.75;;;18.40;52.50;;;;;;5031020;28;44824;-61
2022/12/08 07:49:59;;;;;;;3.30;2.60;;;18.30;52.50;;;;;;5036460;28;43426;-61
2022/12/08 07:52:27;;;;;;;3.70;2.85;;;18.30;52.50;;;;;;5026379;28;43413;-62
2022/12/08 07:54:54;;;;;;;3.35;2.70;;;18.30;52.40;;;;;;5036455;28;43558;-61
2022/12/08 07:57:22;;;;;;;3.45;2.72;;;18.30;52.40;;;;;;5032515;28;45168;-61
2022/12/08 07:59:50;;;;;;;4.10;3.00;;;18.30;52.50;;;;;;5040145;28;43708;-61
2022/12/08 08:02:18;;;;;;;3.42;2.58;;;18.30;52.50;;;;;;5026912;28;43518;-62
2022/12/08 08:04:52;;;;;;;3.88;2.83;;;18.30;52.50;;;;;;5027672;28;43445;-61
2022/12/08 08:07:20;;;;;;;5.15;3.20;;;18.30;52.50;;;;;;5040328;28;44967;-61
2022/12/08 08:09:47;;;;;;;4.18;2.95;;;18.30;52.50;;;;;;5022463;28;43646;-61
2022/12/08 08:12:15;;;;;;;4.45;2.88;;;18.20;52.40;;;;;;5039742;28;43376;-62
2022/12/08 08:15:00;;;;;;;3.70;3.08;;;18.30;52.50;;;;;;5032590;28;43493;-61
2022/12/08 08:17:29;;;;;;;4.63;3.17;;;18.20;52.50;;;;;;5028185;28;43873;-61
2022/12/08 08:19:57;;;;;;;3.47;2.75;;;18.20;52.50;;;;;;5035119;28;43961;-61
2022/12/08 08:22:27;;;;;;;3.97;3.00;;;18.20;52.60;;;;;;5028282;28;44051;-61
2022/12/08 08:24:55;;;;;;;5.10;3.40;;;18.20;52.50;;;;;;5041303;28;43462;-61
2022/12/08 08:27:23;;;;;;;5.03;3.08;;;18.20;52.50;;;;;;5026665;28;44043;-61
2022/12/08 08:29:51;;;;;;;4.93;3.00;;;18.20;52.50;;;;;;5038248;28;43720;-61
2022/12/08 08:32:19;;;;;;;3.97;2.80;;;18.20;52.50;;;;;;5028246;28;43582;-61
2022/12/08 08:34:46;;;;;;;4.50;3.20;;;18.20;52.60;;;;;;5040223;28;43525;-61
2022/12/08 08:37:14;;;;;;;4.82;3.25;;;18.20;52.50;;;;;;5027396;28;44797;-61
2022/12/08 08:39:41;;;;;;;5.60;3.42;;;18.20;52.50;;;;;;5037182;28;43714;-61
2022/12/08 08:42:09;;;;;;;4.45;2.88;;;18.20;52.50;;;;;;5028817;28;43395;-62
2022/12/08 08:44:37;;;;;;;5.05;3.30;;;18.20;52.50;;;;;;5039811;28;43596;-61
2022/12/08 08:47:05;;;;;;;3.97;3.00;;;18.20;52.50;;;;;;5026195;28;44967;-62
2022/12/08 08:49:32;;;;;;;6.15;3.30;;;18.20;52.50;;;;;;5031322;28;43802;-62
2022/12/08 08:52:00;;;;;;;4.78;3.13;;;18.20;52.60;;;;;;5022112;28;43321;-63
2022/12/08 08:54:28;;;;;;;3.92;3.05;;;18.10;52.50;;;;;;5030983;28;43484;-60
2022/12/08 08:56:57;;;;;;;11.48;4.18;;;18.10;52.70;;;;;;5027395;28;44925;-60
2022/12/08 08:59:25;;;;;;;8.93;3.40;;;18.10;52.90;;;;;;5037965;28;43701;-62
2022/12/08 09:01:53;;;;;;;6.50;3.20;;;18.10;52.90;;;;;;5028741;28;43494;-61
2022/12/08 09:04:22;;;;;;;8.10;3.40;;;18.10;52.90;;;;;;5023696;28;43624;-61
2022/12/08 09:06:49;;;;;;;5.72;2.95;;;18.20;52.90;;;;;;5024834;28;45302;-61
2022/12/08 09:09:17;;;;;;;8.02;3.63;;;18.20;52.80;;;;;;5037676;28;43979;-61
2022/12/08 09:11:44;;;;;;;6.38;3.15;;;18.30;52.80;;;;;;5036906;28;43569;-61
2022/12/08 09:14:14;;;;;;;6.68;3.47;;;18.30;52.70;;;;;;5029145;28;43512;-61
2022/12/08 09:16:41;;;;;;;5.55;3.03;;;18.40;52.60;;;;;;5037201;28;44648;-61
2022/12/08 09:19:09;;;;;;;6.15;3.45;;;18.40;52.60;;;;;;5039587;28;43678;-61
2022/12/08 09:21:38;;;;;;;4.57;2.90;;;18.50;52.50;;;;;;5033678;28;43438;-60
2022/12/08 09:24:09;;;;;;;6.85;3.38;;;18.50;52.50;;;;;;5033227;28;43427;-61
2022/12/08 09:26:36;;;;;;;6.43;3.25;;;18.60;52.30;;;;;;5025079;28;43799;-60
2022/12/08 09:29:04;;;;;;;6.13;3.35;;;18.60;52.30;;;;;;5039646;28;43710;-61
2022/12/08 09:31:31;;;;;;;5.32;3.28;;;18.60;52.20;;;;;;5033219;28;43412;-60
2022/12/08 09:33:59;;;;;;;6.32;3.60;;;18.70;52.20;;;;;;5034053;28;43546;-61
2022/12/08 09:36:27;;;;;;;10.00;3.75;;;18.70;52.10;;;;;;5024451;28;43753;-60
2022/12/08 09:38:55;;;;;;;6.85;3.75;;;18.70;52.10;;;;;;5028991;28;43479;-61
2022/12/08 09:41:37;;;;;;;6.45;4.25;;;18.80;52.10;;;;;;5036496;28;43523;-62
2022/12/08 09:44:26;;;;;;;;;;;18.80;52.10;;;;;;5040649;28;43535;-61
2022/12/08 09:46:56;;;;;;;6.93;3.55;;;18.90;52.30;;;;;;5044163;28;43870;-60
2022/12/08 09:49:38;;;;;;;7.25;3.88;;;18.90;52.10;;;;;;5033707;28;44131;-62
2022/12/08 09:52:20;;;;;;;5.32;3.40;;;18.80;52.10;;;;;;5040511;28;43431;-61
2022/12/08 09:54:47;;;;;;;7.35;3.72;;;18.90;52.20;;;;;;5042153;28;43486;-60
2022/12/08 09:57:19;;;;;;;7.60;3.72;;;18.90;52.30;;;;;;5042353;28;44809;-61
2022/12/08 09:59:58;;;;;;;7.88;4.18;;;18.90;52.00;;;;;;5029493;28;43673;-60
2022/12/08 10:02:28;;;;;;;9.82;4.40;;;18.90;52.00;;;;;;5040450;28;43506;-60
2022/12/08 10:04:57;;;;;;;7.55;4.15;;;18.90;51.90;;;;;;5042794;28;43418;-61
2022/12/08 10:07:45;;;;;;;8.20;4.10;;;19.00;51.90;;;;;;5042295;28;45133;-61
2022/12/08 10:10:28;;;;;;;6.07;3.78;;;18.90;51.80;;;;;;5027455;28;43811;-61
2022/12/08 10:13:18;;;;;;;7.50;4.05;;;18.90;51.90;;;;;;5034536;28;43515;-60
2022/12/08 10:16:11;;;;;;;7.88;4.10;;;19.00;51.80;;;;;;5028209;28;43409;-60
2022/12/08 10:19:09;;;;;;;8.48;4.18;;;19.00;51.80;;;;;;5032373;28;45006;-60
2022/12/08 10:21:38;;;;;;;5.68;3.65;;;19.00;51.80;;;;;;5028451;28;43800;-60
2022/12/08 10:24:15;;;;;;;7.55;4.00;;;19.00;51.80;;;;;;5042692;28;43471;-63
2022/12/08 10:26:43;;;;;;;9.00;4.15;;;19.10;52.00;;;;;;5026114;28;43543;-60
2022/12/08 10:29:13;;;;;;;9.13;4.57;;;19.10;51.90;;;;;;5027399;28;44996;-60
2022/12/08 10:31:41;;;;;;;7.10;4.18;;;19.20;51.90;;;;;;5025374;28;43856;-60
2022/12/08 10:34:22;;;;;;;8.73;4.07;;;19.20;51.80;;;;;;5032504;28;43428;-60
2022/12/08 10:36:52;;;;;;;;;;;19.30;51.70;;;;;;5028764;28;43460;-59
2022/12/08 10:39:34;;;;;;;8.05;3.78;;;19.30;51.80;;;;;;5033406;28;44819;-59
2022/12/08 10:42:30;;;;;;;10.45;4.20;;;19.30;51.60;;;;;;5031152;28;43364;-60
2022/12/08 10:45:01;;;;;;;7.47;4.00;;;19.40;51.70;;;;;;5034785;28;43391;-60
2022/12/08 10:47:34;;;;;;;6.65;4.10;;;19.40;51.70;;;;;;5031707;28;43480;-60
2022/12/08 10:50:15;;;;;;;7.38;3.67;;;19.50;51.90;;;;;;5029559;28;44796;-60
2022/12/08 10:52:44;;;;;;;7.63;4.03;;;19.50;51.80;;;;;;5026896;28;43708;-60
2022/12/08 10:55:17;;;;;;;5.53;3.20;;;19.60;52.30;;;;;;5034131;28;43478;-60
2022/12/08 10:57:47;;;;;;;6.80;3.80;;;19.80;51.70;;;;;;5039451;28;43387;-61
2022/12/08 11:00:22;;;;;;;5.80;3.75;;;19.80;51.40;;;;;;5031850;28;44691;-60
2022/12/08 11:03:03;;;;;;;5.30;3.05;;;19.90;51.50;;;;;;5030548;28;43431;-61
2022/12/08 11:05:33;;;;;;;5.00;3.53;;;20.00;51.20;;;;;;5030476;28;43517;-60
2022/12/08 11:08:03;;;;;;;4.40;3.17;;;20.10;51.30;;;;;;5031807;28;43495;-61
2022/12/08 11:10:37;;;;;;;5.13;3.00;;;20.10;51.20;;;;;;5030147;28;45036;-61
2022/12/08 11:13:17;;;;;;;5.63;3.58;;;20.30;51.20;;;;;;5027200;28;43763;-61
2022/12/08 11:15:49;;;;;;;5.68;3.40;;;20.40;51.20;;;;;;5036220;28;43390;-61
2022/12/08 11:18:40;;;;;;;6.15;3.25;;;20.50;50.80;;;;;;5033236;28;43569;-60
2022/12/08 11:21:29;;;;;;;4.45;2.80;;;20.60;50.50;;;;;;5029915;28;43655;-61
2022/12/08 11:24:17;;;;;;;5.28;3.03;;;20.60;50.30;;;;;;5010221;28;43568;-61
2022/12/08 11:27:03;;;;;;;4.50;2.88;;;20.70;50.20;;;;;;5028831;28;43499;-61
2022/12/08 11:29:34;;;;;;;6.20;2.88;;;20.70;50.30;;;;;;5034091;28;43562;-62
2022/12/08 11:32:12;;;;;;;4.35;2.47;;;20.80;50.30;;;;;;5033906;28;44135;-61
2022/12/08 11:35:05;;;;;;;5.35;2.80;;;20.90;50.20;;;;;;5025276;28;43466;-61
2022/12/08 11:37:41;;;;;;;4.97;2.78;;;20.90;50.10;;;;;;5031634;28;43471;-62
2022/12/08 11:40:35;;;;;;;4.40;2.80;;;20.90;50.00;;;;;;5028652;28;43527;-61
2022/12/08 11:43:21;;;;;;;4.18;2.92;;;20.90;49.80;;;;;;5029744;28;45129;-61
2022/12/08 11:46:00;;;;;;;3.30;2.60;;;20.90;49.80;;;;;;5030900;28;43563;-61
2022/12/08 11:48:34;;;;;;;5.38;3.15;;;20.90;50.00;;;;;;5027566;28;43428;-61
2022/12/08 11:51:31;;;;;;;4.47;2.42;;;20.90;49.80;;;;;;5033052;28;43490;-61
2022/12/08 11:54:19;;;;;;;5.07;2.50;;;20.90;49.90;;;;;;5028626;28;44051;-61
2022/12/08 11:56:50;;;;;;;4.88;2.97;;;20.90;50.00;;;;;;5028135;28;44138;-60
2022/12/08 11:59:38;;;;;;;4.28;2.90;;;20.80;50.10;;;;;;5032175;28;43421;-60
2022/12/08 12:02:11;;;;;;;3.45;2.55;;;20.80;50.00;;;;;;5022102;28;44010;-60
2022/12/08 12:04:51;;;;;;;3.30;2.45;;;20.80;50.10;;;;;;5036401;28;45205;-60
2022/12/08 12:07:40;;;;;;;5.25;2.60;;;20.80;50.10;;;;;;5034851;28;43452;-61
2022/12/08 12:10:26;;;;;;;3.63;2.55;;;20.70;50.30;;;;;;5022870;28;43478;-61
2022/12/08 12:13:39;;;;;;;2.50;2.00;;;20.70;50.10;;;;;;5022821;28;43538;-61
2022/12/08 12:16:36;;;;;;;3.10;2.20;;;20.70;50.20;;;;;;5039598;28;44989;-61
2022/12/08 12:19:13;;;;;;;3.28;2.10;;;20.60;50.30;;;;;;5039274;28;43399;-61
2022/12/08 12:21:45;;;;;;;2.85;2.00;;;20.60;50.40;;;;;;5026389;28;43393;-61
2022/12/08 12:24:21;;;;;;;4.78;2.05;;;20.50;50.50;;;;;;5041635;28;43479;-60
2022/12/08 12:26:58;;;;;;;1.98;1.67;;;20.50;50.60;;;;;;5031076;28;44026;-61
2022/12/08 12:29:33;;;;;;;2.50;1.83;;;20.50;50.80;;;;;;5038132;28;43694;-61
2022/12/08 12:32:07;;;;;;;3.33;2.13;;;20.50;50.80;;;;;;5026967;28;43438;-61
2022/12/08 12:34:46;;;;;;;3.13;1.95;;;20.50;50.80;;;;;;5032229;28;43407;-60
2022/12/08 12:37:17;;;;;;;4.35;2.20;;;20.50;50.90;;;;;;5025476;28;45242;-61
2022/12/08 12:39:51;;;;;;;;;;;20.50;50.90;;;;;;5027049;28;43407;-60
2022/12/08 12:42:47;;;;;;;4.10;2.55;;;20.40;50.90;;;;;;5034273;28;43412;-61
2022/12/08 12:45:15;;;;;;;3.67;2.50;;;20.40;51.00;;;;;;5025102;28;43495;-61
2022/12/08 12:47:50;;;;;;;3.50;2.40;;;20.40;51.00;;;;;;5037347;28;44054;-61
2022/12/08 12:50:32;;;;;;;4.57;2.70;;;20.40;51.00;;;;;;5032469;28;43394;-61
2022/12/08 12:53:25;;;;;;;3.28;2.30;;;20.40;51.10;;;;;;5041351;28;43451;-60
2022/12/08 12:56:03;;;;;;;2.85;2.47;;;20.40;51.10;;;;;;5029328;28;43499;-62
2022/12/08 12:58:30;;;;;;;3.40;2.30;;;20.40;51.10;;;;;;5033819;28;44067;-61
2022/12/08 13:01:18;;;;;;;2.60;2.10;;;20.40;51.20;;;;;;5025692;28;43998;-61
2022/12/08 13:04:01;;;;;;;3.30;2.47;;;20.40;51.20;;;;;;4999296;28;43654;-61
2022/12/08 13:06:42;;;;;;;2.88;2.13;;;20.40;51.10;;;;;;5039986;28;43510;-60
2022/12/08 13:09:38;;;;;;;2.88;2.25;;;20.40;51.10;;;;;;5023958;28;43857;-60
2022/12/08 13:12:22;;;;;;;3.70;2.10;;;20.30;51.00;;;;;;5040249;28;43987;-60
2022/12/08 13:14:51;;;;;;;3.65;2.22;;;20.30;51.10;;;;;;5044048;28;43298;-60
2022/12/08 13:17:27;;;;;;;2.70;2.10;;;20.30;51.20;;;;;;5028244;28;43558;-60
2022/12/08 13:19:58;;;;;;;2.95;2.30;;;20.30;51.20;;;;;;5027616;28;44174;-60
2022/12/08 13:22:49;;;;;;;3.25;2.50;;;20.30;51.30;;;;;;5042940;28;43998;-60
2022/12/08 13:25:35;;;;;;;;;;;20.30;51.30;;;;;;5040161;28;43415;-60